createdAt,value
2023-04-20T00:03:38.766Z,5.80
2023-04-20T00:08:44.035Z,5.80
2023-04-20T00:13:46.709Z,5.80
2023-04-20T00:18:49.825Z,5.70
2023-04-20T00:23:53.924Z,5.60
2023-04-20T00:28:56.583Z,5.40
2023-04-20T00:33:59.321Z,5.10
2023-04-20T00:39:03.446Z,4.90
2023-04-20T00:44:07.968Z,4.80
2023-04-20T00:49:11.035Z,4.60
2023-04-20T00:54:15.389Z,4.40
2023-04-20T00:59:18.337Z,4.40
2023-04-20T01:04:21.845Z,4.50
2023-04-20T01:09:25.965Z,4.70
2023-04-20T01:14:28.745Z,4.60
2023-04-20T01:19:31.643Z,4.40
2023-04-20T01:24:35.752Z,4.00
2023-04-20T01:29:38.683Z,3.70
2023-04-20T01:34:42.583Z,3.70
2023-04-20T01:39:46.870Z,3.40
2023-04-20T01:44:49.869Z,3.30
2023-04-20T01:49:52.550Z,3.10
2023-04-20T01:54:56.528Z,2.90
2023-04-20T01:59:59.362Z,2.70
2023-04-20T02:05:02.041Z,2.70
2023-04-20T02:10:07.148Z,2.70
2023-04-20T02:15:10.511Z,2.70
2023-04-20T02:20:13.510Z,2.70
2023-04-20T02:25:18.691Z,2.60
2023-04-20T02:30:21.693Z,2.30
2023-04-20T02:35:24.534Z,2.40
2023-04-20T02:40:28.699Z,2.10
2023-04-20T02:45:31.420Z,2.20
2023-04-20T02:50:35.048Z,2.40
2023-04-20T02:55:39.203Z,2.40
2023-04-20T03:00:42.022Z,2.40
2023-04-20T03:05:44.892Z,2.80
2023-04-20T03:10:49.046Z,2.60
2023-04-20T03:15:51.765Z,2.60
2023-04-20T03:20:54.865Z,2.80
2023-04-20T03:25:58.953Z,2.80
2023-04-20T03:31:02.007Z,2.50
2023-04-20T03:36:05.973Z,2.40
2023-04-20T03:41:10.342Z,2.30
2023-04-20T03:46:13.197Z,2.20
2023-04-20T03:51:16.115Z,2.30
2023-04-20T03:56:20.642Z,2.30
2023-04-20T04:01:23.685Z,2.40
2023-04-20T04:06:27.386Z,2.40
2023-04-20T04:11:31.534Z,2.60
2023-04-20T04:16:34.542Z,2.90
2023-04-20T04:21:39.238Z,3.10
2023-04-20T04:26:43.440Z,3.40
2023-04-20T04:31:46.299Z,3.40
2023-04-20T04:36:49.157Z,3.40
2023-04-20T04:41:53.203Z,3.40
2023-04-20T04:46:55.987Z,3.50
2023-04-20T04:51:58.673Z,3.60
2023-04-20T04:57:03.530Z,3.80
2023-04-20T05:07:49.052Z,4.00
2023-04-20T05:12:53.282Z,4.10
2023-04-20T05:17:55.950Z,4.10
2023-04-20T05:22:58.715Z,3.90
2023-04-20T05:28:02.717Z,3.90
2023-04-20T05:33:05.422Z,3.90
2023-04-20T05:38:08.290Z,4.00
2023-04-20T05:43:12.493Z,4.00
2023-04-20T05:48:15.275Z,4.10
2023-04-20T05:53:18.459Z,4.20
2023-04-20T05:58:22.568Z,4.50
2023-04-20T06:03:25.704Z,4.90
2023-04-20T06:08:28.533Z,5.30
2023-04-20T06:13:32.538Z,6.00
2023-04-20T06:18:35.402Z,6.00
2023-04-20T06:23:38.496Z,5.80
2023-04-20T06:28:43.109Z,5.40
2023-04-20T06:33:46.048Z,5.40
2023-04-20T06:38:48.727Z,5.90
2023-04-20T06:43:52.708Z,6.00
2023-04-20T06:48:55.464Z,6.00
2023-04-20T06:53:58.115Z,6.10
2023-04-20T06:59:02.240Z,6.20
2023-04-20T07:04:05.028Z,6.20
2023-04-20T07:09:08.594Z,5.90
2023-04-20T07:14:12.603Z,5.80
2023-04-20T07:19:15.394Z,6.10
2023-04-20T07:24:18.118Z,6.10
2023-04-20T07:29:22.092Z,6.10
2023-04-20T07:34:24.787Z,6.20
2023-04-20T07:39:28.721Z,6.20
2023-04-20T07:44:32.790Z,6.30
2023-04-20T07:49:37.451Z,6.30
2023-04-20T07:54:40.607Z,6.50
2023-04-20T07:59:47.194Z,6.70
2023-04-20T08:04:50.212Z,6.90
2023-04-20T08:09:53.077Z,6.90
2023-04-20T08:15:00.461Z,7.30
2023-04-20T08:20:05.768Z,7.80
2023-04-20T08:25:09.356Z,8.40
2023-04-20T08:30:13.849Z,8.50
2023-04-20T08:35:16.593Z,8.60
2023-04-20T08:40:19.917Z,9.00
2023-04-20T08:45:23.972Z,9.50
2023-04-20T08:50:26.627Z,9.90
2023-04-20T08:55:29.530Z,10.10
2023-04-20T09:00:33.514Z,9.60
2023-04-20T09:05:37.655Z,9.30
2023-04-20T09:10:42.696Z,9.50
2023-04-20T09:15:46.663Z,9.90
2023-04-20T09:20:49.360Z,10.20
2023-04-20T09:25:53.506Z,10.00
2023-04-20T09:30:58.794Z,10.00
2023-04-20T09:36:05.221Z,9.80
2023-04-20T09:41:08.387Z,9.70
2023-04-20T09:46:12.716Z,9.80
2023-04-20T09:51:15.990Z,9.80
2023-04-20T09:56:20.851Z,9.60
2023-04-20T10:01:26.035Z,9.50
2023-04-20T10:06:30.654Z,9.40
2023-04-20T10:11:48.993Z,9.70
2023-04-20T10:17:04.426Z,9.80
2023-04-20T10:22:08.236Z,9.70
2023-04-20T10:27:20.782Z,9.70
2023-04-20T10:32:26.287Z,10.10
2023-04-20T10:37:29.540Z,10.20
2023-04-20T10:42:42.812Z,10.20
2023-04-20T10:47:46.801Z,10.50
2023-04-20T10:52:49.921Z,10.80
2023-04-20T10:57:53.348Z,11.20
2023-04-20T11:02:58.273Z,11.30
2023-04-20T11:08:02.021Z,11.30
2023-04-20T11:13:04.770Z,11.20
2023-04-20T11:18:09.710Z,11.10
2023-04-20T11:23:12.501Z,11.00
2023-04-20T11:28:15.186Z,10.80
2023-04-20T11:33:29.127Z,10.80
2023-04-20T11:38:32.881Z,11.10
2023-04-20T11:43:36.316Z,11.40
2023-04-20T11:48:40.284Z,11.60
2023-04-20T11:53:43.173Z,11.80
2023-04-20T11:58:46.254Z,11.90
2023-04-20T12:03:50.498Z,12.00
2023-04-20T12:08:53.322Z,11.80
2023-04-20T12:13:55.998Z,11.90
2023-04-20T12:18:59.992Z,11.90
2023-04-20T12:24:02.699Z,11.90
2023-04-20T12:29:05.459Z,12.10
2023-04-20T12:34:09.529Z,12.10
2023-04-20T12:39:12.216Z,11.90
2023-04-20T12:44:14.885Z,11.70
2023-04-20T12:49:19.276Z,11.70
2023-04-20T12:54:22.148Z,11.80
2023-04-20T12:59:24.863Z,12.00
2023-04-20T13:04:29.184Z,12.20
2023-04-20T13:09:32.060Z,12.50
2023-04-20T13:14:34.941Z,13.00
2023-04-20T13:19:38.975Z,13.30
2023-04-20T13:24:41.619Z,13.20
2023-04-20T13:29:44.288Z,13.20
2023-04-20T13:34:48.280Z,13.20
2023-04-20T13:39:51.294Z,13.50
2023-04-20T13:44:54.195Z,13.70
2023-04-20T13:49:58.404Z,13.80
2023-04-20T13:55:01.512Z,13.90
2023-04-20T14:00:05.370Z,14.60
2023-04-20T14:05:10.434Z,15.20
2023-04-20T14:10:13.140Z,15.00
2023-04-20T14:15:16.008Z,14.80
2023-04-20T14:20:20.008Z,14.60
2023-04-20T14:25:37.808Z,16.20
2023-04-20T14:30:40.635Z,18.40
2023-04-20T14:35:46.684Z,20.00
2023-04-20T14:40:55.632Z,21.80
2023-04-20T14:46:00.722Z,22.10
2023-04-20T14:51:05.523Z,23.20
2023-04-20T14:56:09.821Z,23.90
2023-04-20T15:01:12.620Z,24.90
2023-04-20T15:06:15.598Z,24.10
2023-04-20T15:11:19.566Z,22.10
2023-04-20T15:16:22.287Z,20.50
2023-04-20T15:21:26.878Z,19.40
2023-04-20T15:26:30.944Z,18.20
2023-04-20T15:31:33.618Z,17.20
2023-04-20T15:36:36.411Z,17.20
2023-04-20T15:41:40.641Z,17.10
2023-04-20T15:46:43.577Z,16.40
2023-04-20T15:51:46.777Z,16.20
2023-04-20T15:56:51.068Z,16.10
2023-04-20T16:01:54.290Z,15.90
2023-04-20T16:06:57.058Z,15.70
2023-04-20T16:12:03.694Z,15.50
2023-04-20T16:17:07.668Z,15.30
2023-04-20T16:22:10.560Z,15.20
2023-04-20T16:27:14.775Z,15.20
2023-04-20T16:32:17.773Z,15.20
2023-04-20T16:37:20.475Z,15.20
2023-04-20T16:42:24.620Z,15.20
2023-04-20T16:47:27.409Z,15.20
2023-04-20T16:52:30.114Z,15.10
2023-04-20T16:57:34.183Z,15.00
2023-04-20T17:02:37.555Z,14.80
2023-04-20T17:07:40.481Z,14.40
2023-04-20T17:12:44.562Z,14.00
2023-04-20T17:17:47.315Z,13.60
2023-04-20T17:22:50.091Z,13.30
2023-04-20T17:27:54.061Z,13.00
2023-04-20T17:32:57.179Z,12.70
2023-04-20T17:37:59.923Z,12.50
2023-04-20T17:43:04.034Z,12.30
2023-04-20T17:48:07.207Z,12.00
2023-04-20T17:53:09.997Z,11.70
2023-04-20T17:58:14.060Z,11.50
2023-04-20T18:03:19.773Z,11.30
2023-04-20T18:08:23.282Z,11.10
2023-04-20T18:13:27.313Z,10.90
2023-04-20T18:18:29.989Z,10.50
2023-04-20T18:23:33.041Z,10.40
2023-04-20T18:28:37.047Z,10.50
2023-04-20T18:33:40.307Z,10.70
2023-04-20T18:38:43.138Z,10.90
2023-04-20T18:43:50.883Z,11.10
2023-04-20T18:48:55.278Z,11.10
2023-04-20T18:53:58.092Z,11.00
2023-04-20T18:59:03.878Z,10.80
2023-04-20T19:04:07.192Z,10.70
2023-04-20T19:09:15.813Z,10.60
2023-04-20T19:14:20.077Z,10.40
2023-04-20T19:19:23.076Z,10.00
2023-04-20T19:24:25.959Z,9.80
2023-04-20T19:29:31.332Z,10.10
2023-04-20T19:34:34.027Z,10.00
2023-04-20T19:39:51.113Z,9.80
2023-04-20T19:44:57.161Z,9.80
2023-04-20T19:50:05.566Z,9.60
2023-04-20T19:55:12.095Z,9.60
2023-04-20T20:00:58.355Z,9.60
2023-04-20T20:06:12.019Z,10.00
2023-04-20T20:11:18.380Z,10.20
2023-04-20T20:16:39.286Z,10.20
2023-04-20T20:21:55.086Z,9.90
2023-04-20T20:27:12.908Z,9.60
2023-04-20T20:32:58.958Z,9.50
2023-04-20T20:38:07.984Z,9.40
2023-04-20T20:43:12.957Z,9.10
2023-04-20T20:48:15.871Z,8.80
2023-04-20T20:53:20.894Z,8.70
2023-04-20T20:58:23.775Z,8.90
2023-04-20T21:03:27.328Z,8.70
2023-04-20T21:08:31.602Z,8.30
2023-04-20T21:13:34.262Z,8.10
2023-04-20T21:18:36.992Z,8.00
2023-04-20T21:23:41.035Z,7.90
2023-04-20T21:28:43.820Z,7.80
2023-04-20T21:33:46.473Z,7.90
2023-04-20T21:38:50.576Z,7.70
2023-04-20T21:43:53.738Z,7.60
2023-04-20T21:48:56.417Z,7.60
2023-04-20T21:54:00.522Z,7.40
2023-04-20T21:59:03.344Z,7.30
2023-04-20T22:04:07.211Z,7.20
2023-04-20T22:09:11.432Z,7.20
2023-04-20T22:14:14.197Z,7.10
2023-04-20T22:19:17.565Z,7.00
2023-04-20T22:24:21.678Z,7.10
2023-04-20T22:29:24.433Z,6.90
2023-04-20T22:34:27.068Z,6.80
2023-04-20T22:39:31.020Z,6.70
2023-04-20T22:44:33.727Z,6.60
2023-04-20T22:49:37.492Z,6.40
2023-04-20T22:54:41.639Z,6.50
2023-04-20T22:59:44.393Z,6.30
2023-04-20T23:04:47.254Z,6.30
2023-04-20T23:09:51.257Z,6.40
2023-04-20T23:14:54.875Z,6.40
2023-04-20T23:19:57.592Z,6.30
2023-04-20T23:25:01.670Z,6.30
2023-04-20T23:30:04.759Z,6.30
2023-04-20T23:35:07.929Z,6.20
2023-04-20T23:40:12.925Z,6.10
2023-04-20T23:45:15.745Z,5.90
2023-04-20T23:50:18.404Z,5.70
2023-04-20T23:55:22.491Z,5.60
